Time;durP1;ratioP1;P1;durP2;ratioP2;P2;SDS_P1;SDS_P2;PMS_P1;PMS_P2;Temp;Humidity;BMP_temperature;BMP_pressure;BME280_temperature;BME280_humidity;BME280_pressure;Samples;Min_cycle;Max_cycle;Signal;HPM_P1;HPM_P2
2021/04/02 00:02:37;;;;;;;13.05;8.25;;;;;;;11.61;68.88;100907.28;5037865;28;20033;-74
2021/04/02 00:05:23;;;;;;;10.20;8.05;;;;;;;11.66;68.54;100910.69;5037985;28;20104;-74
2021/04/02 00:08:09;;;;;;;11.38;8.40;;;;;;;11.63;68.53;100905.47;5037726;28;20029;-74
2021/04/02 00:10:55;;;;;;;10.30;7.97;;;;;;;11.60;69.66;100906.41;5037161;28;20053;-73
2021/04/02 00:13:46;;;;;;;10.82;8.18;;;;;;;11.36;70.68;100913.81;5035982;28;20369;-73
2021/04/02 00:16:31;;;;;;;11.43;7.63;;;;;;;11.14;71.60;100913.34;5037040;28;20026;-75
2021/04/02 00:19:17;;;;;;;13.93;8.20;;;;;;;11.01;73.89;100901.28;5021119;28;20035;-75
2021/04/02 00:22:03;;;;;;;13.23;7.65;;;;;;;11.26;72.85;100905.25;5037109;28;20021;-74
2021/04/02 00:24:49;;;;;;;11.50;8.30;;;;;;;11.08;73.98;100900.31;5035979;28;20108;-74
2021/04/02 00:27:35;;;;;;;12.07;8.63;;;;;;;10.56;77.87;100901.16;5036214;28;20029;-74
2021/04/02 00:30:31;;;;;;;15.15;8.65;;;;;;;10.97;76.21;100897.00;5035633;28;20420;-73
2021/04/02 00:33:20;;;;;;;12.18;8.98;;;;;;;11.22;74.81;100892.22;5035047;28;20430;-74
2021/04/02 00:36:06;;;;;;;13.45;8.60;;;;;;;10.95;76.29;100890.03;5036746;28;20022;-73
2021/04/02 00:38:52;;;;;;;11.50;8.23;;;;;;;10.66;77.64;100887.91;5035959;28;20033;-74
2021/04/02 00:41:38;;;;;;;13.98;8.90;;;;;;;11.01;76.57;100882.09;5021212;28;20025;-74
2021/04/02 00:44:24;;;;;;;13.52;8.60;;;;;;;10.44;79.58;100883.84;5036165;28;20025;-73
2021/04/02 00:47:09;;;;;;;12.90;7.85;;;;;;;10.76;78.19;100868.50;5036710;28;20103;-74
2021/04/02 00:49:55;;;;;;;14.82;8.57;;;;;;;10.35;80.73;100872.63;5036055;28;20124;-74
2021/04/02 00:52:41;;;;;;;11.65;8.65;;;;;;;10.82;79.19;100859.69;5035957;28;20021;-74
2021/04/02 00:55:27;;;;;;;12.65;8.70;;;;;;;11.11;77.24;100858.31;5009000;28;20022;-73
2021/04/02 00:58:16;;;;;;;12.60;8.32;;;;;;;10.93;77.81;100857.75;5021666;28;20123;-73
2021/04/02 01:01:05;;;;;;;13.85;8.93;;;;;;;10.46;79.26;100858.50;5034965;28;20540;-74
2021/04/02 01:03:52;;;;;;;14.45;8.77;;;;;;;10.45;79.51;100858.53;5035747;28;20025;-74
2021/04/02 01:06:41;;;;;;;12.30;8.73;;;;;;;10.47;79.91;100852.38;5021060;28;20022;-74
2021/04/02 01:09:27;;;;;;;14.32;8.35;;;;;;;10.70;79.03;100842.41;5035590;28;20104;-74
2021/04/02 01:12:13;;;;;;;12.23;8.40;;;;;;;10.57;78.74;100845.25;5036024;28;20417;-74
2021/04/02 01:14:59;;;;;;;12.48;8.43;;;;;;;10.29;79.46;100839.53;5035048;28;20060;-74
2021/04/02 01:17:49;;;;;;;13.48;8.15;;;;;;;10.46;79.63;100834.94;5035390;28;20517;-74
2021/04/02 01:20:35;;;;;;;13.13;8.48;;;;;;;10.83;78.02;100824.72;5036199;28;20025;-74
2021/04/02 01:23:27;;;;;;;12.52;8.13;;;;;;;11.01;76.24;100821.78;5035814;28;20025;-74
2021/04/02 01:26:38;;;;;;;12.65;8.52;;;;;;;10.70;75.58;100810.97;5034616;28;20060;-74
2021/04/02 01:29:42;;;;;;;15.85;8.52;;;;;;;11.03;74.45;100805.16;5035895;28;20025;-74
2021/04/02 01:32:41;;;;;;;13.43;7.90;;;;;;;11.09;74.90;100797.16;5021540;28;20025;-74
2021/04/02 01:35:35;;;;;;;17.48;8.43;;;;;;;11.24;72.43;100790.75;5034558;28;20084;-74
2021/04/02 01:38:26;;;;;;;13.20;7.70;;;;;;;11.10;72.90;100787.53;5034818;28;20040;-75
2021/04/02 01:41:13;;;;;;;12.02;7.70;;;;;;;11.33;70.08;100786.19;5034568;28;20025;-74
2021/04/02 01:44:01;;;;;;;12.10;7.95;;;;;;;11.32;70.45;100789.72;5034483;28;20476;-74
2021/04/02 01:46:49;;;;;;;9.93;7.68;;;;;;;11.48;70.88;100785.03;5034922;28;20351;-73
2021/04/02 01:49:37;;;;;;;14.25;7.93;;;;;;;11.79;68.53;100768.69;5035433;28;20358;-74
2021/04/02 01:52:25;;;;;;;13.52;8.35;;;;;;;11.43;69.42;100774.66;5035589;28;20033;-74
2021/04/02 01:55:13;;;;;;;14.07;8.30;;;;;;;11.68;68.74;100762.78;5020407;28;20040;-74
2021/04/02 01:58:00;;;;;;;11.55;8.63;;;;;;;11.60;68.56;100764.69;5020262;28;20036;-74
2021/04/02 02:00:50;;;;;;;14.27;9.05;;;;;;;11.51;68.72;100758.75;5021010;28;20045;-74
2021/04/02 02:03:37;;;;;;;12.82;8.25;;;;;;;11.87;68.23;100752.75;5020041;28;20065;-74
2021/04/02 02:06:25;;;;;;;12.18;8.27;;;;;;;11.54;68.98;100762.16;5034944;28;20056;-74
2021/04/02 02:09:15;;;;;;;13.13;8.50;;;;;;;11.29;69.29;100754.84;5033961;28;20029;-74
2021/04/02 02:12:06;;;;;;;13.43;8.90;;;;;;;11.40;70.40;100758.97;5021176;28;20033;-74
2021/04/02 02:14:52;;;;;;;13.52;8.23;;;;;;;11.39;69.41;100749.38;5035273;28;20033;-74
2021/04/02 02:17:41;;;;;;;17.17;8.02;;;;;;;11.44;70.58;100741.38;5035261;28;20029;-74
2021/04/02 02:20:29;;;;;;;10.77;7.80;;;;;;;11.27;70.91;100749.63;5033410;28;20067;-75
2021/04/02 02:23:15;;;;;;;13.55;8.25;;;;;;;11.04;71.96;100743.06;5034867;28;20041;-73
2021/04/02 02:26:04;;;;;;;12.82;8.65;;;;;;;11.37;70.73;100730.16;5034319;28;20549;-74
2021/04/02 02:28:50;;;;;;;15.10;8.32;;;;;;;11.56;70.50;100730.63;5033980;28;20099;-74
2021/04/02 02:31:36;;;;;;;13.55;8.55;;;;;;;11.19;71.72;100725.31;5020020;28;20112;-74
2021/04/02 02:34:22;;;;;;;11.60;8.38;;;;;;;11.11;70.77;100721.09;5034677;28;20040;-74
2021/04/02 02:37:08;;;;;;;12.30;8.10;;;;;;;11.05;71.20;100722.06;5033310;28;20450;-74
2021/04/02 02:39:54;;;;;;;11.20;8.07;;;;;;;10.94;71.67;100710.06;5033623;28;20378;-73
2021/04/02 02:42:41;;;;;;;12.32;7.63;;;;;;;11.12;70.81;100709.69;5033653;28;20119;-74
2021/04/02 02:45:29;;;;;;;12.80;8.48;;;;;;;11.10;71.65;100704.50;5033864;28;20120;-74
2021/04/02 02:48:15;;;;;;;13.07;8.50;;;;;;;11.01;71.19;100701.22;5032929;28;20029;-75
2021/04/02 02:51:01;;;;;;;10.55;8.05;;;;;;;11.30;70.26;100689.25;5034398;28;20025;-74
2021/04/02 02:53:48;;;;;;;13.20;8.15;;;;;;;11.47;68.86;100692.38;5033164;28;20025;-74
2021/04/02 02:56:36;;;;;;;12.55;7.75;;;;;;;11.60;68.29;100691.22;5034542;28;20365;-74
2021/04/02 02:59:24;;;;;;;13.80;7.97;;;;;;;11.15;69.80;100694.78;5033449;28;20041;-74
2021/04/02 03:02:10;;;;;;;10.65;7.57;;;;;;;11.31;70.09;100690.97;5034500;28;20049;-74
2021/04/02 03:04:57;;;;;;;10.00;7.65;;;;;;;11.73;68.29;100682.19;5033562;28;20022;-75
2021/04/02 03:07:47;;;;;;;12.60;7.82;;;;;;;11.76;67.34;100686.50;5033984;28;20418;-74
2021/04/02 03:10:35;;;;;;;12.60;7.68;;;;;;;11.60;68.19;100690.31;5033633;28;20331;-75
2021/04/02 03:13:22;;;;;;;13.10;8.32;;;;;;;11.76;67.82;100687.38;5032852;28;20585;-74
2021/04/02 03:16:10;;;;;;;13.15;7.55;;;;;;;11.63;68.48;100685.91;5034115;28;20025;-74
2021/04/02 03:18:58;;;;;;;14.10;9.10;;;;;;;11.58;68.34;100685.09;5034199;28;20390;-75
2021/04/02 03:21:47;;;;;;;11.50;8.00;;;;;;;11.76;68.40;100684.75;5032795;28;20080;-74
2021/04/02 03:24:38;;;;;;;11.02;7.85;;;;;;;11.80;68.95;100686.41;5032766;28;20056;-74
2021/04/02 03:27:26;;;;;;;12.27;8.80;;;;;;;11.48;69.85;100687.97;5033954;28;20025;-74
2021/04/02 03:30:15;;;;;;;12.30;8.57;;;;;;;11.84;68.17;100689.81;5032750;28;20267;-73
2021/04/02 03:33:15;;;;;;;13.30;8.95;;;;;;;11.77;68.40;100686.47;5032653;28;20032;-73
2021/04/02 03:36:06;;;;;;;12.20;8.77;;;;;;;11.43;70.28;100693.31;5033743;28;20025;-74
2021/04/02 03:38:54;;;;;;;14.85;8.88;;;;;;;11.17;71.58;100700.84;5032663;28;20037;-73
2021/04/02 03:41:42;;;;;;;13.77;9.20;;;;;;;11.33;71.16;100707.50;5019007;28;20101;-73
2021/04/02 03:44:31;;;;;;;12.02;8.57;;;;;;;11.13;72.19;100700.97;5034025;28;20104;-74
2021/04/02 03:47:19;;;;;;;14.35;9.25;;;;;;;10.80;73.83;100699.84;5032670;28;20056;-74
2021/04/02 03:50:08;;;;;;;15.93;9.73;;;;;;;10.59;75.47;100694.13;5020104;28;20021;-72
2021/04/02 03:53:06;;;;;;;16.27;9.70;;;;;;;11.01;74.57;100694.19;5019330;28;20029;-73
2021/04/02 03:55:53;;;;;;;16.45;9.85;;;;;;;11.03;73.82;100691.53;5033080;28;20022;-73
2021/04/02 03:58:41;;;;;;;17.02;10.05;;;;;;;10.47;76.46;100689.09;5019805;28;20033;-74
2021/04/02 04:01:33;;;;;;;16.23;10.38;;;;;;;10.63;77.22;100695.81;5032763;28;20057;-75
2021/04/02 04:04:25;;;;;;;13.40;9.40;;;;;;;10.79;76.22;100692.88;5033325;28;20033;-74
2021/04/02 04:07:12;;;;;;;18.02;10.00;;;;;;;10.23;79.13;100693.00;5019890;28;20021;-73
2021/04/02 04:09:59;;;;;;;14.90;9.80;;;;;;;10.62;78.47;100688.84;5033568;28;20130;-73
2021/04/02 04:12:49;;;;;;;16.70;10.50;;;;;;;10.89;78.45;100688.34;5033366;28;20065;-74
2021/04/02 04:15:36;;;;;;;15.43;9.77;;;;;;;11.23;75.62;100678.88;5032503;28;20418;-75
2021/04/02 04:18:22;;;;;;;15.05;9.90;;;;;;;11.21;75.33;100678.06;5035730;28;20038;-74
2021/04/02 04:21:09;;;;;;;15.77;9.77;;;;;;;11.59;73.63;100671.13;5036570;28;20096;-74
2021/04/02 04:23:56;;;;;;;17.92;10.98;;;;;;;11.56;73.65;100673.78;5035753;28;20025;-74
2021/04/02 04:26:46;;;;;;;19.45;10.70;;;;;;;11.09;74.90;100680.94;5022638;28;20113;-73
2021/04/02 04:29:37;;;;;;;20.00;10.35;;;;;;;11.36;73.67;100673.34;5036043;28;20021;-74
2021/04/02 04:32:25;;;;;;;18.95;10.63;;;;;;;11.31;74.63;100666.47;5021414;28;20045;-74
2021/04/02 04:35:15;;;;;;;19.73;10.65;;;;;;;11.23;74.06;100671.91;5035747;28;20413;-75
2021/04/02 04:38:05;;;;;;;17.67;10.35;;;;;;;10.94;75.17;100670.75;5036776;28;20048;-74
2021/04/02 04:40:53;;;;;;;18.02;10.32;;;;;;;11.24;73.41;100670.13;5021818;28;20048;-74
2021/04/02 04:43:40;;;;;;;17.23;10.52;;;;;;;11.03;75.21;100671.44;5022723;28;20029;-72
2021/04/02 04:46:26;;;;;;;14.93;9.60;;;;;;;11.09;73.74;100659.97;5036151;28;20022;-71
2021/04/02 04:49:12;;;;;;;14.38;8.73;;;;;;;11.24;73.94;100660.50;5036774;28;20355;-74
2021/04/02 04:52:00;;;;;;;16.83;9.30;;;;;;;11.51;72.43;100654.69;5036211;28;20025;-74
2021/04/02 04:54:51;;;;;;;15.48;8.60;;;;;;;11.46;72.40;100647.78;5035740;28;20025;-73
2021/04/02 04:57:39;;;;;;;13.88;8.43;;;;;;;11.28;72.41;100643.81;5035357;28;20021;-74
2021/04/02 05:00:28;;;;;;;15.70;8.70;;;;;;;11.45;72.04;100643.47;5035083;28;20115;-74
2021/04/02 05:03:21;;;;;;;12.40;8.27;;;;;;;11.28;71.88;100641.19;5035818;28;20044;-74
2021/04/02 05:06:09;;;;;;;13.13;8.10;;;;;;;11.58;71.25;100634.41;5035770;28;20068;-74
2021/04/02 05:08:59;;;;;;;11.38;8.25;;;;;;;12.01;69.20;100636.00;5035171;28;20037;-76
2021/04/02 05:11:46;;;;;;;17.52;8.68;;;;;;;12.20;68.46;100637.28;5034884;28;20017;-74
2021/04/02 05:14:32;;;;;;;15.25;8.07;;;;;;;12.01;67.55;100633.38;5036434;28;20033;-74
2021/04/02 05:17:21;;;;;;;13.85;8.75;;;;;;;12.48;66.88;100646.19;5034691;28;20029;-74
2021/04/02 05:20:08;;;;;;;14.48;8.68;;;;;;;12.39;66.58;100638.53;5036329;28;20025;-73
2021/04/02 05:22:54;;;;;;;15.20;8.68;;;;;;;11.64;68.61;100640.41;5021006;28;20474;-74
2021/04/02 05:25:40;;;;;;;13.00;8.40;;;;;;;12.00;68.14;100634.28;5035914;28;20370;-74
2021/04/02 05:28:26;;;;;;;13.10;8.40;;;;;;;12.12;67.22;100644.50;5034430;28;20108;-73
2021/04/02 05:31:12;;;;;;;15.05;8.57;;;;;;;12.10;67.70;100633.13;5034466;28;20029;-74
2021/04/02 05:33:58;;;;;;;13.55;9.05;;;;;;;12.31;68.32;100632.63;5036110;28;20026;-76
2021/04/02 05:36:44;;;;;;;14.77;9.38;;;;;;;12.33;67.16;100627.28;5035037;28;20040;-74
2021/04/02 05:39:30;;;;;;;13.93;8.80;;;;;;;12.24;66.40;100620.53;5021289;28;20029;-74
2021/04/02 05:42:24;;;;;;;13.52;8.20;;;;;;;12.41;66.81;100626.22;5020706;28;20032;-76
2021/04/02 05:45:11;;;;;;;16.83;8.18;;;;;;;12.40;66.11;100623.63;5035182;28;20044;-75
2021/04/02 05:48:01;;;;;;;13.90;8.65;;;;;;;12.49;65.88;100621.63;5020363;28;20026;-74
2021/04/02 05:50:48;;;;;;;15.48;9.00;;;;;;;11.99;67.12;100618.56;5035809;28;20361;-74
2021/04/02 05:53:35;;;;;;;19.65;10.48;;;;;;;12.51;67.10;100617.19;5034056;28;20021;-72
2021/04/02 05:56:22;;;;;;;11.48;8.40;;;;;;;12.48;66.19;100619.91;5034917;28;20026;-73
2021/04/02 05:59:07;;;;;;;16.20;9.40;;;;;;;13.19;64.79;100612.66;5020188;28;20029;-72
2021/04/02 06:01:55;;;;;;;13.48;9.27;;;;;;;13.20;63.45;100623.13;5033827;28;20045;-72
2021/04/02 06:04:40;;;;;;;14.30;8.70;;;;;;;13.04;64.54;100620.97;5035209;28;20025;-72
2021/04/02 06:07:26;;;;;;;16.98;10.35;;;;;;;13.18;63.95;100619.66;5020737;28;20051;-72
2021/04/02 06:10:12;;;;;;;19.38;11.60;;;;;;;13.37;63.66;100622.59;5033949;28;20033;-73
2021/04/02 06:12:59;;;;;;;21.30;10.20;;;;;;;13.28;63.86;100623.75;5034482;28;20033;-76
2021/04/02 06:15:45;;;;;;;17.17;10.93;;;;;;;12.51;66.07;100630.34;5019751;28;20477;-76
2021/04/02 06:18:37;;;;;;;16.40;10.38;;;;;;;13.17;64.96;100639.00;5019984;28;20029;-75
2021/04/02 06:21:26;;;;;;;20.38;10.95;;;;;;;12.72;65.97;100631.50;5034289;28;20025;-75
2021/04/02 06:24:13;;;;;;;17.52;11.07;;;;;;;12.97;67.27;100636.06;5033741;28;20320;-73
2021/04/02 06:27:01;;;;;;;17.50;10.98;;;;;;;13.00;68.32;100628.09;5020000;28;20025;-75
2021/04/02 06:29:47;;;;;;;23.33;11.77;;;;;;;12.74;69.28;100625.28;5019389;28;20036;-75
2021/04/02 06:32:37;;;;;;;15.77;10.98;;;;;;;12.61;69.08;100629.16;5034367;28;20025;-73
2021/04/02 06:35:24;;;;;;;30.08;11.20;;;;;;;12.97;69.61;100615.03;5033707;28;20114;-73
2021/04/02 06:38:10;;;;;;;21.13;10.93;;;;;;;13.19;68.10;100604.75;5034050;28;20017;-72
2021/04/02 06:41:04;;;;;;;21.83;11.13;;;;;;;13.70;66.83;100601.38;5019330;28;20401;-73
2021/04/02 06:43:54;;;;;;;19.48;10.68;;;;;;;13.96;65.68;100601.41;5019338;28;20036;-74
2021/04/02 06:46:40;;;;;;;20.50;11.80;;;;;;;13.78;66.80;100603.75;5033730;28;20033;-72
2021/04/02 06:49:27;;;;;;;21.85;14.10;;;;;;;14.39;65.36;100603.47;5033753;28;20032;-74
2021/04/02 06:52:12;;;;;;;18.88;11.77;;;;;;;14.40;66.27;100616.56;5033775;28;20191;-73
2021/04/02 06:54:59;;;;;;;19.73;11.02;;;;;;;15.15;63.09;100614.75;5019168;28;20029;-73
2021/04/02 06:57:49;;;;;;;18.02;11.63;;;;;;;15.71;61.47;100613.44;5033609;28;20104;-72
2021/04/02 07:00:38;;;;;;;18.88;10.98;;;;;;;15.84;60.39;100617.31;5033477;28;20056;-74
2021/04/02 07:03:25;;;;;;;21.33;10.25;;;;;;;15.94;59.34;100622.16;5033905;28;20162;-72
2021/04/02 07:06:11;;;;;;;25.42;11.52;;;;;;;15.77;60.52;100623.75;5019073;28;20029;-76
2021/04/02 07:09:00;;;;;;;19.63;10.77;;;;;;;15.83;61.81;100615.59;5019825;28;20118;-75
2021/04/02 07:11:50;;;;;;;22.08;11.07;;;;;;;15.45;63.25;100617.09;5033243;28;20026;-75
2021/04/02 07:14:37;;;;;;;21.58;10.50;;;;;;;15.49;63.70;100617.84;5033135;28;20025;-77
2021/04/02 07:17:23;;;;;;;24.25;10.95;;;;;;;15.26;65.08;100615.22;5033544;28;20036;-76
2021/04/02 07:20:11;;;;;;;26.02;11.23;;;;;;;15.49;65.31;100615.19;5019666;28;20095;-76
2021/04/02 07:22:58;;;;;;;20.65;11.05;;;;;;;15.48;65.66;100616.13;5020196;28;20029;-74
2021/04/02 07:25:44;;;;;;;20.70;10.95;;;;;;;15.60;64.87;100605.06;5019066;28;20461;-77
2021/04/02 07:28:31;;;;;;;22.27;11.82;;;;;;;15.33;65.39;100600.84;5033721;28;20105;-76
2021/04/02 07:31:19;;;;;;;18.00;11.63;;;;;;;15.44;65.15;100609.25;5033482;28;20060;-76
2021/04/02 07:34:06;;;;;;;17.42;10.68;;;;;;;16.03;63.20;100607.72;5033390;28;20037;-76
2021/04/02 07:36:52;;;;;;;16.95;10.40;;;;;;;16.26;61.85;100608.47;5033835;28;20025;-75
2021/04/02 07:39:38;;;;;;;13.93;9.82;;;;;;;16.53;61.02;100595.88;5033291;28;20104;-76
2021/04/02 07:42:24;;;;;;;16.13;9.85;;;;;;;16.46;61.65;100586.47;5033290;28;20029;-76
2021/04/02 07:45:10;;;;;;;17.77;10.02;;;;;;;16.55;61.60;100572.88;5033579;28;20508;-75
2021/04/02 07:48:16;;;;;;;23.35;11.18;;;;;;;16.45;63.11;100579.47;5032521;28;20033;-75
2021/04/02 07:51:02;;;;;;;25.27;11.55;;;;;;;16.89;61.97;100576.59;5034405;28;20037;-75
2021/04/02 07:53:48;;;;;;;21.40;10.50;;;;;;;17.57;60.25;100587.47;5036887;28;20111;-75
2021/04/02 07:56:34;;;;;;;23.15;11.05;;;;;;;18.39;57.85;100573.66;5022181;28;20052;-74
2021/04/02 07:59:32;;;;;;;16.90;10.07;;;;;;;18.06;58.06;100578.00;5036573;28;20036;-75
2021/04/02 08:02:29;;;;;;;15.05;8.55;;;;;;;18.58;56.38;100566.47;5017409;28;20391;-74
2021/04/02 08:05:15;;;;;;;14.52;8.55;;;;;;;18.86;55.81;100562.25;5017506;28;20036;-74
2021/04/02 08:08:01;;;;;;;14.05;8.32;;;;;;;18.63;55.41;100569.72;5015866;28;20069;-74
2021/04/02 08:11:19;;;;;;;14.13;8.90;;;;;;;18.79;53.60;100562.66;5016514;28;20053;-74
2021/04/02 08:14:13;;;;;;;9.50;7.57;;;;;;;19.46;52.32;100558.06;5016157;28;20026;-75
2021/04/02 08:16:59;;;;;;;10.98;7.45;;;;;;;19.56;50.56;100543.31;5016697;28;20071;-74
2021/04/02 08:19:46;;;;;;;10.45;7.35;;;;;;;19.93;48.85;100547.38;5016388;28;20116;-74
2021/04/02 08:22:32;;;;;;;8.57;6.63;;;;;;;19.47;47.30;100548.28;5017069;28;20398;-74
2021/04/02 08:25:24;;;;;;;9.02;6.97;;;;;;;20.58;45.65;100542.50;5017369;28;20109;-73
2021/04/02 08:28:11;;;;;;;9.80;6.47;;;;;;;19.70;45.36;100543.38;5016943;28;20034;-72
2021/04/02 08:30:59;;;;;;;9.68;6.13;;;;;;;20.33;44.52;100541.44;5016981;28;20037;-72
2021/04/02 08:33:45;;;;;;;11.13;6.45;;;;;;;20.77;43.36;100545.75;5016945;28;20065;-72
2021/04/02 08:36:31;;;;;;;9.00;5.80;;;;;;;19.88;44.40;100541.44;5015965;28;20029;-75
2021/04/02 08:39:22;;;;;;;10.43;6.32;;;;;;;20.21;44.59;100536.84;5015937;28;20028;-73
2021/04/02 08:42:11;;;;;;;9.88;6.20;;;;;;;21.07;43.67;100540.34;5015681;28;20029;-76
2021/04/02 08:45:05;;;;;;;8.15;5.68;;;;;;;21.84;42.32;100536.19;5015670;28;20030;-76
2021/04/02 08:47:57;;;;;;;11.63;5.80;;;;;;;21.68;42.43;100530.13;5016717;28;20093;-74
2021/04/02 08:50:47;;;;;;;10.20;6.60;;;;;;;22.00;42.44;100528.84;5017191;28;20029;-75
2021/04/02 08:53:41;;;;;;;9.85;5.80;;;;;;;22.00;42.61;100520.84;5016025;28;20084;-77
2021/04/02 08:56:30;;;;;;;9.05;5.82;;;;;;;22.42;41.62;100505.44;5016444;28;20092;-78
2021/04/02 08:59:17;;;;;;;8.43;5.47;;;;;;;22.81;41.42;100504.47;5016685;28;20029;-75
2021/04/02 09:02:04;;;;;;;12.93;6.03;;;;;;;22.97;41.20;100508.63;5034209;28;20124;-75
2021/04/02 09:04:50;;;;;;;8.55;6.03;;;;;;;22.57;41.36;100498.19;5036657;28;20076;-76
2021/04/02 09:07:40;;;;;;;9.77;6.95;;;;;;;22.63;41.42;100505.78;5035813;28;20022;-76
2021/04/02 09:10:27;;;;;;;9.88;6.03;;;;;;;22.20;42.05;100494.53;5021383;28;20033;-74
2021/04/02 09:13:13;;;;;;;12.20;6.80;;;;;;;21.72;43.44;100499.66;5036178;28;20434;-77
2021/04/02 09:16:05;;;;;;;9.98;6.30;;;;;;;21.79;43.36;100495.63;5034028;28;20030;-77
2021/04/02 09:18:58;;;;;;;9.93;5.88;;;;;;;21.86;43.23;100483.59;5035141;28;20556;-75
2021/04/02 09:21:44;;;;;;;14.95;6.35;;;;;;;21.36;45.06;100481.56;5035480;28;20533;-74
2021/04/02 09:24:33;;;;;;;10.18;6.30;;;;;;;21.72;43.97;100476.50;5035529;28;20037;-75
2021/04/02 09:27:22;;;;;;;10.55;6.45;;;;;;;21.65;44.60;100476.97;5034873;28;20026;-77
2021/04/02 09:30:09;;;;;;;9.90;6.35;;;;;;;21.56;45.39;100483.78;5020341;28;20495;-77
2021/04/02 09:32:54;;;;;;;8.77;6.28;;;;;;;21.66;45.50;100470.72;5035935;28;20095;-75
2021/04/02 09:35:40;;;;;;;9.48;6.57;;;;;;;21.28;46.14;100475.91;5035516;28;20017;-76
2021/04/02 09:38:26;;;;;;;8.45;6.53;;;;;;;21.60;46.73;100476.44;5035404;28;20111;-75
2021/04/02 09:41:13;;;;;;;10.20;6.43;;;;;;;22.00;46.71;100468.38;5033338;28;20067;-77
2021/04/02 09:44:08;;;;;;;10.80;7.30;;;;;;;22.02;46.26;100474.44;5034018;28;20022;-75
2021/04/02 09:47:09;;;;;;;13.85;8.57;;;;;;;21.98;46.48;100466.75;5034459;28;20029;-75
2021/04/02 09:49:54;;;;;;;12.32;7.80;;;;;;;21.91;46.85;100463.63;5034123;28;20029;-76
2021/04/02 09:53:00;;;;;;;10.65;7.70;;;;;;;21.28;48.43;100454.56;5034342;28;20029;-73
2021/04/02 09:55:46;;;;;;;12.30;7.80;;;;;;;21.45;49.42;100458.78;5020621;28;20025;-76
2021/04/02 09:58:32;;;;;;;11.35;7.18;;;;;;;20.95;50.47;100462.09;5034340;28;20095;-76
2021/04/02 10:01:43;;;;;;;9.85;7.60;;;;;;;20.68;52.80;100457.59;5036418;28;20053;-74
2021/04/02 10:04:29;;;;;;;11.45;7.75;;;;;;;20.94;53.01;100454.19;5035830;28;20096;-75
2021/04/02 10:07:15;;;;;;;12.27;8.05;;;;;;;20.80;53.51;100454.16;5034672;28;20021;-74
2021/04/02 10:10:00;;;;;;;10.02;7.85;;;;;;;21.04;53.25;100445.50;5035436;28;20454;-75
2021/04/02 10:12:46;;;;;;;10.70;7.53;;;;;;;20.66;54.17;100451.53;5034599;28;20035;-74
2021/04/02 10:15:32;;;;;;;12.68;7.50;;;;;;;20.41;55.49;100443.38;5033827;28;20037;-75
2021/04/02 10:18:19;;;;;;;12.10;7.40;;;;;;;20.59;54.80;100444.88;5034179;28;20141;-74
2021/04/02 10:21:06;;;;;;;14.90;7.63;;;;;;;20.79;54.85;100447.13;5034521;28;20029;-74
2021/04/02 10:23:52;;;;;;;11.85;7.75;;;;;;;21.06;54.36;100446.25;5034004;28;20029;-75
2021/04/02 10:26:38;;;;;;;11.15;8.00;;;;;;;20.99;55.95;100447.63;5019375;28;20044;-73
2021/04/02 10:29:27;;;;;;;13.10;7.75;;;;;;;20.95;56.42;100446.09;5033817;28;20060;-74
2021/04/02 10:32:13;;;;;;;13.70;8.48;;;;;;;21.05;56.17;100446.38;5034342;28;20029;-74
2021/04/02 10:34:58;;;;;;;16.13;8.25;;;;;;;21.20;56.50;100430.22;5034519;28;20030;-74
2021/04/02 10:37:44;;;;;;;14.55;8.40;;;;;;;21.27;55.87;100420.03;5033304;28;20018;-73
2021/04/02 10:40:30;;;;;;;13.15;8.57;;;;;;;21.75;55.03;100416.78;5034025;28;20179;-74
2021/04/02 10:43:16;;;;;;;16.67;8.02;;;;;;;21.78;54.79;100409.41;5019183;28;20477;-74
2021/04/02 10:46:03;;;;;;;11.57;7.85;;;;;;;21.86;54.79;100407.06;5033734;28;20030;-75
2021/04/02 10:48:48;;;;;;;12.68;8.18;;;;;;;22.24;54.43;100412.44;5033230;28;20108;-73
2021/04/02 10:51:34;;;;;;;15.57;8.40;;;;;;;22.15;53.82;100402.41;5033656;28;20106;-74
2021/04/02 10:54:20;;;;;;;12.77;7.78;;;;;;;22.38;53.28;100399.81;5019413;28;20033;-74
2021/04/02 10:57:07;;;;;;;11.30;7.60;;;;;;;22.63;52.46;100396.28;5033932;28;20104;-75
2021/04/02 10:59:53;;;;;;;12.77;7.50;;;;;;;22.38;53.18;100380.28;5033228;28;20040;-74
2021/04/02 11:02:39;;;;;;;16.20;7.20;;;;;;;22.70;52.19;100373.50;5033321;28;20049;-74
2021/04/02 11:05:25;;;;;;;10.88;6.80;;;;;;;22.54;52.21;100376.44;5032863;28;20033;-74
2021/04/02 11:08:10;;;;;;;15.85;7.90;;;;;;;22.61;52.19;100367.03;5032996;28;20029;-74
2021/04/02 11:10:56;;;;;;;9.82;7.50;;;;;;;22.91;52.38;100370.13;5033240;28;20021;-73
2021/04/02 11:13:42;;;;;;;17.13;7.85;;;;;;;23.30;51.99;100361.84;5018797;28;20381;-74
2021/04/02 11:16:28;;;;;;;12.98;7.72;;;;;;;23.23;51.14;100360.59;5033572;28;20025;-73
2021/04/02 11:19:13;;;;;;;15.73;7.22;;;;;;;23.76;50.28;100350.31;5033431;28;20091;-74
2021/04/02 11:21:59;;;;;;;12.32;7.47;;;;;;;23.25;51.32;100353.31;5032959;28;20335;-74
2021/04/02 11:24:45;;;;;;;14.98;7.63;;;;;;;23.14;51.73;100345.22;5033777;28;20022;-75
2021/04/02 11:27:32;;;;;;;21.88;7.50;;;;;;;23.35;51.23;100348.97;5037708;28;20037;-74
2021/04/02 11:30:20;;;;;;;14.85;7.97;;;;;;;23.73;50.81;100345.19;5037455;28;20029;-74
2021/04/02 11:33:06;;;;;;;56.78;10.77;;;;;;;23.43;51.69;100338.56;5022867;28;20092;-75
2021/04/02 11:35:51;;;;;;;16.58;8.40;;;;;;;23.62;52.06;100345.19;5022794;28;20025;-73
2021/04/02 11:38:41;;;;;;;13.77;7.85;;;;;;;23.55;52.63;100344.81;5023163;28;20029;-74
2021/04/02 11:41:27;;;;;;;12.20;7.25;;;;;;;23.79;51.58;100332.19;5022491;28;20047;-72
2021/04/02 11:44:12;;;;;;;21.20;7.43;;;;;;;23.51;52.78;100323.75;5037428;28;20180;-72
2021/04/02 11:46:58;;;;;;;33.60;8.13;;;;;;;23.80;52.49;100327.69;5022354;28;20026;-73
2021/04/02 11:49:44;;;;;;;15.45;7.22;;;;;;;23.42;52.39;100317.28;5037921;28;20021;-73
2021/04/02 11:52:29;;;;;;;29.35;8.05;;;;;;;23.22;52.10;100316.13;5037396;28;20179;-73
2021/04/02 11:55:17;;;;;;;17.73;7.53;;;;;;;23.34;52.39;100308.97;5036927;28;20029;-73
2021/04/02 11:58:03;;;;;;;10.98;7.00;;;;;;;23.22;53.24;100313.44;5036800;28;20018;-73
2021/04/02 12:00:49;;;;;;;13.80;7.85;;;;;;;23.38;53.26;100301.59;5036535;28;20021;-75
2021/04/02 12:03:35;;;;;;;12.35;7.53;;;;;;;23.47;54.13;100314.25;5036074;28;20040;-73
2021/04/02 12:06:32;;;;;;;13.57;7.32;;;;;;;23.78;52.82;100303.72;5022367;28;20040;-73
2021/04/02 12:09:17;;;;;;;14.52;7.10;;;;;;;23.76;52.49;100288.78;5037415;28;20482;-73
2021/04/02 12:12:13;;;;;;;13.70;7.18;;;;;;;23.66;52.52;100295.81;5036566;28;20033;-72
2021/04/02 12:15:05;;;;;;;16.23;7.97;;;;;;;23.41;53.78;100286.16;5022842;28;20064;-72
2021/04/02 12:17:51;;;;;;;18.48;8.27;;;;;;;23.55;54.37;100285.09;5036554;28;20021;-72
2021/04/02 12:20:37;;;;;;;15.00;7.65;;;;;;;23.56;53.79;100285.00;5038264;28;20025;-72
2021/04/02 12:23:23;;;;;;;19.00;7.30;;;;;;;23.63;53.39;100277.34;5036353;28;20116;-72
2021/04/02 12:26:09;;;;;;;12.52;7.00;;;;;;;23.84;52.25;100283.69;5022652;28;20087;-75
2021/04/02 12:28:54;;;;;;;14.00;7.40;;;;;;;23.62;53.70;100276.47;5036487;28;20025;-73
2021/04/02 12:31:40;;;;;;;15.88;7.60;;;;;;;23.75;55.00;100279.06;5037376;28;20084;-73
2021/04/02 12:34:26;;;;;;;25.95;8.32;;;;;;;23.30;56.58;100283.44;5036834;28;20022;-74
2021/04/02 12:37:12;;;;;;;17.83;8.45;;;;;;;23.25;57.01;100278.47;5035352;28;20119;-73
2021/04/02 12:40:02;;;;;;;15.63;8.10;;;;;;;23.15;57.88;100279.25;5037059;28;20433;-73
2021/04/02 12:42:48;;;;;;;10.73;7.55;;;;;;;23.30;57.91;100273.63;5036679;28;20067;-72
2021/04/02 12:45:34;;;;;;;14.38;8.20;;;;;;;23.36;59.14;100258.94;5036101;28;20108;-74
2021/04/02 12:48:21;;;;;;;18.73;8.32;;;;;;;23.05;61.48;100259.53;5036095;28;20108;-73
2021/04/02 12:51:07;;;;;;;14.50;8.00;;;;;;;23.31;61.83;100269.13;5035593;28;20026;-73
2021/04/02 12:53:52;;;;;;;16.02;7.75;;;;;;;23.00;62.42;100262.56;5036271;28;20025;-73